createdAt,value
2024-02-10T00:02:37.282Z,2.30
2024-02-10T00:05:38.820Z,2.45
2024-02-10T00:08:40.884Z,2.80
2024-02-10T00:11:42.774Z,1.77
2024-02-10T00:14:45.114Z,2.58
2024-02-10T00:17:46.584Z,3.42
2024-02-10T00:20:53.788Z,2.05
2024-02-10T00:23:55.285Z,2.75
2024-02-10T00:26:59.730Z,2.88
2024-02-10T00:30:04.343Z,2.65
2024-02-10T00:33:08.941Z,3.22
2024-02-10T00:36:10.367Z,2.40
2024-02-10T00:39:12.894Z,2.58
2024-02-10T00:42:14.744Z,2.13
2024-02-10T00:45:16.048Z,2.42
2024-02-10T00:48:18.713Z,1.90
2024-02-10T00:51:20.130Z,2.60
2024-02-10T00:54:31.042Z,2.60
2024-02-10T00:57:32.495Z,2.53
2024-02-10T01:00:37.538Z,2.40
2024-02-10T01:03:45.813Z,2.00
2024-02-10T01:06:49.542Z,1.70
2024-02-10T01:09:50.873Z,2.47
2024-02-10T01:12:52.190Z,3.22
2024-02-10T01:15:56.044Z,3.30
2024-02-10T01:18:58.312Z,2.22
2024-02-10T01:21:59.657Z,2.10
2024-02-10T01:25:01.033Z,2.83
2024-02-10T01:28:02.865Z,2.38
2024-02-10T01:31:07.088Z,2.88
2024-02-10T01:34:09.961Z,4.00
2024-02-10T01:37:11.336Z,2.80
2024-02-10T01:40:13.059Z,3.35
2024-02-10T01:43:14.432Z,2.85
2024-02-10T01:46:17.723Z,3.80
2024-02-10T01:49:19.273Z,3.25
2024-02-10T01:52:21.806Z,3.00
2024-02-10T01:55:24.889Z,3.30
2024-02-10T01:58:26.483Z,4.38
2024-02-10T02:01:28.332Z,2.60
2024-02-10T02:04:32.670Z,3.35
2024-02-10T02:07:34.146Z,3.40
2024-02-10T02:10:35.676Z,6.38
2024-02-10T02:13:37.023Z,4.32
2024-02-10T02:16:41.002Z,2.88
2024-02-10T02:19:43.732Z,3.25
2024-02-10T02:22:51.696Z,4.93
2024-02-10T02:25:53.060Z,4.03
2024-02-10T02:28:54.758Z,3.20
2024-02-10T02:32:00.992Z,5.30
2024-02-10T02:35:11.006Z,2.90
2024-02-10T02:38:16.941Z,4.32
2024-02-10T02:41:18.271Z,3.85
2024-02-10T02:44:19.605Z,4.28
2024-02-10T02:47:23.897Z,3.53
2024-02-10T02:50:25.709Z,3.65
2024-02-10T02:53:29.361Z,3.35
2024-02-10T02:56:30.660Z,3.95
2024-02-10T02:59:31.945Z,3.75
2024-02-10T03:02:35.866Z,4.13
2024-02-10T03:05:37.514Z,3.97
2024-02-10T03:08:43.341Z,4.20
2024-02-10T03:11:44.697Z,4.72
2024-02-10T03:14:46.999Z,5.35
2024-02-10T03:17:50.823Z,3.92
2024-02-10T03:20:52.393Z,5.53
2024-02-10T03:23:53.851Z,5.05
2024-02-10T03:26:55.112Z,7.55
2024-02-10T03:29:56.511Z,8.65
2024-02-10T03:32:58.080Z,6.90
2024-02-10T03:36:00.011Z,6.45
2024-02-10T03:39:05.117Z,8.50
2024-02-10T03:42:06.928Z,5.85
2024-02-10T03:45:08.638Z,6.32
2024-02-10T03:48:10.317Z,5.10
2024-02-10T03:51:12.530Z,5.15
2024-02-10T03:54:13.850Z,4.88
2024-02-10T03:57:16.813Z,5.05
2024-02-10T04:00:26.358Z,4.90
2024-02-10T04:03:29.195Z,6.57
2024-02-10T04:06:30.663Z,6.75
2024-02-10T04:09:31.968Z,5.32
2024-02-10T04:12:33.929Z,5.63
2024-02-10T04:15:35.442Z,5.90
2024-02-10T04:18:36.810Z,6.10
2024-02-10T04:21:39.926Z,8.32
2024-02-10T04:24:41.207Z,5.30
2024-02-10T04:27:43.030Z,4.78
2024-02-10T04:30:44.330Z,5.07
2024-02-10T04:33:51.695Z,5.70
2024-02-10T04:36:53.279Z,5.85
2024-02-10T04:39:54.555Z,4.55
2024-02-10T04:42:56.065Z,6.55
2024-02-10T04:45:57.493Z,5.78
2024-02-10T04:48:59.287Z,7.80
2024-02-10T04:52:01.533Z,8.85
2024-02-10T04:55:02.882Z,6.53
2024-02-10T04:58:04.630Z,6.97
2024-02-10T05:01:05.969Z,5.43
2024-02-10T05:04:08.921Z,5.25
2024-02-10T05:07:16.405Z,6.50
2024-02-10T05:10:19.557Z,7.82
2024-02-10T05:13:22.209Z,6.78
2024-02-10T05:16:23.879Z,7.70
2024-02-10T05:19:27.141Z,5.55
2024-02-10T05:22:28.780Z,6.40
2024-02-10T05:25:36.688Z,6.85
2024-02-10T05:28:40.015Z,7.10
2024-02-10T05:31:41.435Z,7.00
2024-02-10T05:34:45.488Z,6.10
2024-02-10T05:37:50.738Z,6.65
2024-02-10T05:40:52.086Z,6.38
2024-02-10T05:43:54.886Z,7.32
2024-02-10T05:46:56.309Z,7.00
2024-02-10T05:49:58.725Z,6.90
2024-02-10T05:53:00.655Z,8.73
2024-02-10T05:56:04.627Z,7.50
2024-02-10T05:59:06.126Z,7.63
2024-02-10T06:02:07.535Z,9.40
2024-02-10T06:05:14.072Z,9.13
2024-02-10T06:08:15.641Z,8.65
2024-02-10T06:11:20.195Z,9.63
2024-02-10T06:14:21.605Z,8.00
2024-02-10T06:17:24.985Z,13.82
2024-02-10T06:20:27.747Z,8.30
2024-02-10T06:23:31.766Z,7.13
2024-02-10T06:26:38.045Z,6.68
2024-02-10T06:29:39.365Z,8.38
2024-02-10T06:32:41.014Z,7.70
2024-02-10T06:35:45.029Z,8.25
2024-02-10T06:38:46.523Z,7.97
2024-02-10T06:41:48.106Z,7.45
2024-02-10T06:44:49.398Z,7.60
2024-02-10T06:47:51.332Z,9.00
2024-02-10T06:50:55.434Z,6.80
2024-02-10T06:53:59.510Z,7.50
2024-02-10T06:57:03.010Z,7.72
2024-02-10T07:00:08.483Z,11.85
2024-02-10T07:03:09.942Z,8.73
2024-02-10T07:06:12.739Z,9.27
2024-02-10T07:09:14.139Z,8.27
2024-02-10T07:12:15.542Z,10.13
2024-02-10T07:15:21.363Z,8.63
2024-02-10T07:18:22.891Z,9.55
2024-02-10T07:21:24.233Z,8.70
2024-02-10T07:24:26.125Z,7.80
2024-02-10T07:27:28.100Z,9.50
2024-02-10T07:30:30.179Z,10.35
2024-02-10T07:33:31.538Z,12.30
2024-02-10T07:36:36.734Z,13.38
2024-02-10T07:39:42.342Z,11.07
2024-02-10T07:42:43.634Z,11.98
2024-02-10T07:45:45.028Z,13.73
2024-02-10T07:48:46.995Z,13.75
2024-02-10T07:51:48.974Z,14.20
2024-02-10T07:54:50.366Z,15.35
2024-02-10T07:57:52.453Z,16.13
2024-02-10T08:00:53.871Z,16.13
2024-02-10T08:03:55.769Z,17.30
2024-02-10T08:06:57.326Z,16.90
2024-02-10T08:09:59.214Z,15.15
2024-02-10T08:13:00.730Z,15.27
2024-02-10T08:16:04.666Z,18.00
2024-02-10T08:19:07.475Z,18.10
2024-02-10T08:22:10.571Z,19.10
2024-02-10T08:25:11.918Z,17.13
2024-02-10T08:28:13.280Z,15.73
2024-02-10T08:31:15.761Z,18.63
2024-02-10T08:34:17.115Z,16.88
2024-02-10T08:37:18.670Z,16.35
2024-02-10T08:40:20.053Z,19.77
2024-02-10T08:43:21.466Z,17.95
2024-02-10T08:46:25.113Z,14.30
2024-02-10T08:49:26.554Z,13.20
2024-02-10T08:52:29.569Z,13.43
2024-02-10T08:55:32.625Z,14.68
2024-02-10T08:58:34.056Z,13.60
2024-02-10T09:01:37.778Z,12.32
2024-02-10T09:04:42.226Z,12.07
2024-02-10T09:10:45.314Z,10.10
2024-02-10T09:13:47.561Z,11.93
2024-02-10T09:16:49.082Z,9.07
2024-02-10T09:19:50.810Z,8.93
2024-02-10T09:22:54.457Z,10.30
2024-02-10T09:25:55.820Z,8.80
2024-02-10T09:28:57.241Z,8.70
2024-02-10T09:32:01.704Z,8.85
2024-02-10T09:35:04.352Z,10.10
2024-02-10T09:38:05.743Z,8.20
2024-02-10T09:41:08.955Z,7.38
2024-02-10T09:44:13.649Z,6.63
2024-02-10T09:47:15.394Z,8.15
2024-02-10T09:50:27.967Z,8.85
2024-02-10T09:53:35.656Z,8.77
2024-02-10T09:56:39.756Z,7.93
2024-02-10T09:59:43.479Z,9.05
2024-02-10T10:02:51.901Z,9.20
2024-02-10T10:05:53.366Z,7.45
2024-02-10T10:08:55.098Z,6.68
2024-02-10T10:11:56.497Z,6.30
2024-02-10T10:14:57.795Z,6.85
2024-02-10T10:17:59.274Z,6.43
2024-02-10T10:21:00.972Z,5.72
2024-02-10T10:24:02.275Z,5.60
2024-02-10T10:27:03.815Z,5.57
2024-02-10T10:30:08.064Z,4.43
2024-02-10T10:33:10.274Z,4.82
2024-02-10T10:36:17.943Z,6.45
2024-02-10T10:39:20.687Z,5.30
2024-02-10T10:42:22.802Z,4.30
2024-02-10T10:45:24.691Z,4.35
2024-02-10T10:48:26.094Z,4.63
2024-02-10T10:51:32.370Z,4.68
2024-02-10T10:54:34.988Z,4.55
2024-02-10T10:57:37.602Z,5.20
2024-02-10T11:00:42.027Z,4.30
2024-02-10T11:03:43.977Z,5.15
2024-02-10T11:06:45.844Z,8.77
2024-02-10T11:09:48.775Z,9.15
2024-02-10T11:12:50.101Z,7.97
2024-02-10T11:16:11.351Z,6.22
2024-02-10T11:19:17.116Z,9.50
2024-02-10T11:22:24.044Z,8.27
2024-02-10T11:25:26.480Z,7.93
2024-02-10T11:28:33.696Z,9.43
2024-02-10T11:31:40.693Z,7.88
2024-02-10T11:34:45.044Z,7.25
2024-02-10T11:37:46.473Z,8.43
2024-02-10T11:40:48.863Z,9.02
2024-02-10T11:43:51.825Z,8.02
2024-02-10T11:46:55.052Z,8.23
2024-02-10T11:49:56.918Z,8.07
2024-02-10T11:53:01.025Z,7.90
2024-02-10T11:59:09.033Z,7.85
2024-02-10T12:02:10.738Z,8.27
2024-02-10T12:05:14.553Z,7.57
2024-02-10T12:08:15.958Z,9.40
2024-02-10T12:11:17.970Z,9.40
2024-02-10T12:14:19.384Z,9.93
2024-02-10T12:17:21.219Z,8.07
2024-02-10T12:20:22.683Z,7.60
2024-02-10T12:23:27.409Z,9.93
2024-02-10T12:26:30.182Z,10.50
2024-02-10T12:29:31.584Z,9.88
2024-02-10T12:32:34.164Z,10.50
2024-02-10T12:35:37.392Z,9.07
2024-02-10T12:38:39.646Z,9.82
2024-02-10T12:41:43.515Z,9.13
2024-02-10T12:44:45.166Z,9.60
2024-02-10T12:47:46.924Z,8.98
2024-02-10T12:50:50.253Z,7.90
2024-02-10T12:53:55.403Z,8.95
2024-02-10T12:56:57.372Z,7.55
2024-02-10T12:59:59.208Z,8.90
2024-02-10T13:03:00.502Z,9.70
2024-02-10T13:06:01.913Z,8.60
2024-02-10T13:09:04.043Z,8.13
2024-02-10T13:12:05.966Z,7.68
2024-02-10T13:15:07.705Z,7.82
2024-02-10T13:18:09.234Z,8.00
2024-02-10T13:21:10.686Z,8.88
2024-02-10T13:24:12.040Z,8.45
2024-02-10T13:27:13.356Z,7.95
2024-02-10T13:30:14.778Z,10.82
2024-02-10T13:33:16.451Z,9.13
2024-02-10T13:36:22.593Z,8.85
2024-02-10T13:39:42.965Z,7.55
2024-02-10T13:43:03.018Z,8.48
2024-02-10T13:46:23.249Z,7.75
2024-02-10T13:49:43.298Z,8.63
2024-02-10T13:53:03.209Z,10.75
2024-02-10T13:56:23.145Z,8.50
2024-02-10T13:59:24.448Z,7.78
2024-02-10T14:02:28.850Z,8.60
2024-02-10T14:05:43.483Z,8.15
2024-02-10T14:08:50.309Z,8.02
2024-02-10T14:11:54.497Z,7.25
2024-02-10T14:17:59.909Z,9.57
2024-02-10T14:21:18.443Z,8.40
2024-02-10T14:24:19.836Z,8.80
2024-02-10T14:27:24.840Z,7.95
2024-02-10T14:30:36.134Z,7.70
2024-02-10T14:33:37.511Z,8.25
2024-02-10T14:36:49.993Z,8.90
2024-02-10T14:39:51.629Z,8.52
2024-02-10T14:42:55.624Z,10.10
2024-02-10T14:45:58.621Z,9.15
2024-02-10T14:49:00.006Z,8.60
2024-02-10T14:52:01.396Z,10.88
2024-02-10T14:55:05.838Z,13.68
2024-02-10T14:58:09.399Z,8.80
2024-02-10T15:01:12.325Z,8.25
2024-02-10T15:04:13.713Z,10.65
2024-02-10T15:07:14.976Z,9.23
2024-02-10T15:10:16.278Z,12.57
2024-02-10T15:13:18.189Z,10.23
2024-02-10T15:16:23.523Z,6.43
2024-02-10T15:19:24.924Z,6.82
2024-02-10T15:22:26.280Z,8.20
2024-02-10T15:25:29.326Z,7.32
2024-02-10T15:28:35.436Z,5.55
2024-02-10T15:31:36.887Z,5.55
2024-02-10T15:34:47.830Z,5.90
2024-02-10T15:37:53.203Z,5.45
2024-02-10T15:41:00.537Z,6.65
2024-02-10T15:44:09.297Z,5.78
2024-02-10T15:47:11.844Z,8.05
2024-02-10T15:50:13.264Z,7.50
2024-02-10T15:53:14.827Z,8.77
2024-02-10T15:56:16.224Z,7.65
2024-02-10T15:59:21.152Z,10.88
2024-02-10T16:02:22.599Z,8.48
2024-02-10T16:05:24.708Z,7.70
2024-02-10T16:08:26.126Z,8.85
2024-02-10T16:11:30.481Z,9.95
2024-02-10T16:17:38.739Z,10.18
2024-02-10T16:20:40.231Z,9.75
2024-02-10T16:23:41.736Z,11.35
2024-02-10T16:26:45.677Z,12.30
2024-02-10T16:29:47.032Z,12.05
2024-02-10T16:32:51.922Z,11.77
2024-02-10T16:35:53.240Z,14.38
2024-02-10T16:38:54.525Z,15.27
2024-02-10T16:41:57.535Z,17.17
2024-02-10T16:44:59.497Z,14.23
2024-02-10T16:48:01.339Z,11.90
2024-02-10T16:51:04.559Z,12.07
2024-02-10T16:54:13.526Z,10.90
2024-02-10T16:57:15.061Z,10.52
2024-02-10T17:00:25.557Z,15.18
2024-02-10T17:03:26.975Z,15.68
2024-02-10T17:06:28.509Z,15.63
2024-02-10T17:09:29.894Z,14.73
2024-02-10T17:12:31.233Z,14.07
2024-02-10T17:15:32.820Z,13.80
2024-02-10T17:18:34.398Z,15.10
2024-02-10T17:21:37.840Z,15.57
2024-02-10T17:24:39.298Z,15.18
2024-02-10T17:27:40.613Z,12.80
2024-02-10T17:30:41.923Z,13.95
2024-02-10T17:33:43.658Z,14.82
2024-02-10T17:36:46.101Z,15.00
2024-02-10T17:39:47.407Z,14.20
2024-02-10T17:42:48.761Z,18.52
2024-02-10T17:45:52.119Z,16.40
2024-02-10T17:48:53.590Z,16.33
2024-02-10T17:51:55.875Z,15.38
2024-02-10T17:54:57.208Z,15.32
2024-02-10T17:57:58.618Z,12.55
2024-02-10T18:01:00.396Z,13.48
2024-02-10T18:04:01.964Z,15.38
2024-02-10T18:07:06.060Z,16.92
2024-02-10T18:10:07.718Z,13.35
2024-02-10T18:13:09.130Z,15.18
2024-02-10T18:16:10.548Z,14.35
2024-02-10T18:19:11.925Z,15.43
2024-02-10T18:22:14.678Z,12.13
2024-02-10T18:25:17.199Z,15.95
2024-02-10T18:28:20.533Z,17.40
2024-02-10T18:31:21.890Z,17.65
2024-02-10T18:34:24.218Z,20.95
2024-02-10T18:37:26.334Z,18.10
2024-02-10T18:40:31.284Z,16.98
2024-02-10T18:43:32.759Z,18.40
2024-02-10T18:46:34.179Z,19.75
2024-02-10T18:49:35.826Z,17.38
2024-02-10T18:52:37.403Z,15.60
2024-02-10T18:55:40.480Z,19.83
2024-02-10T18:58:41.966Z,16.38
2024-02-10T19:01:43.886Z,17.02
2024-02-10T19:04:51.624Z,16.15
2024-02-10T19:07:54.896Z,14.73
2024-02-10T19:10:56.441Z,14.10
2024-02-10T19:14:08.266Z,13.70
2024-02-10T19:17:10.100Z,14.27
2024-02-10T19:20:17.635Z,15.82
2024-02-10T19:23:19.102Z,16.60
2024-02-10T19:26:20.968Z,14.50
2024-02-10T19:29:27.027Z,16.73
2024-02-10T19:32:28.408Z,16.65
2024-02-10T19:35:29.957Z,15.68
2024-02-10T19:38:32.945Z,16.83
2024-02-10T19:41:34.317Z,18.48
2024-02-10T19:44:35.657Z,19.13
2024-02-10T19:47:40.085Z,19.00
2024-02-10T19:50:41.701Z,17.50
2024-02-10T19:53:43.458Z,20.88
2024-02-10T19:56:47.684Z,17.80
2024-02-10T19:59:51.354Z,19.38
2024-02-10T20:02:54.682Z,19.50
2024-02-10T20:05:56.332Z,21.42
2024-02-10T20:08:59.196Z,19.75
2024-02-10T20:12:02.007Z,19.55
2024-02-10T20:15:05.429Z,21.90
2024-02-10T20:18:07.075Z,19.92
2024-02-10T20:21:08.464Z,22.50
2024-02-10T20:24:10.533Z,23.50
2024-02-10T20:27:12.429Z,23.20
2024-02-10T20:30:14.142Z,22.25
2024-02-10T20:33:15.630Z,20.13
2024-02-10T20:36:19.446Z,20.15
2024-02-10T20:39:20.944Z,21.08
2024-02-10T20:42:22.753Z,24.88
2024-02-10T20:45:24.109Z,23.20
2024-02-10T20:48:25.888Z,24.63
2024-02-10T20:51:27.946Z,26.27
2024-02-10T20:54:29.298Z,22.83
2024-02-10T20:57:30.628Z,24.48
2024-02-10T21:00:31.968Z,26.30
2024-02-10T21:03:33.805Z,27.77
2024-02-10T21:06:36.703Z,24.52
2024-02-10T21:09:38.141Z,30.23
2024-02-10T21:12:42.900Z,19.27
2024-02-10T21:15:45.436Z,19.20
2024-02-10T21:18:51.582Z,19.52
2024-02-10T21:21:53.017Z,18.58
2024-02-10T21:24:54.373Z,19.65
2024-02-10T21:27:55.792Z,21.63
2024-02-10T21:30:57.131Z,21.85
2024-02-10T21:33:58.538Z,23.60
2024-02-10T21:37:00.764Z,20.90
2024-02-10T21:40:04.013Z,20.85
2024-02-10T21:43:05.335Z,20.55
2024-02-10T21:46:06.896Z,23.20
2024-02-10T21:49:08.236Z,22.35
2024-02-10T21:52:11.221Z,24.23
2024-02-10T21:55:13.970Z,20.67
2024-02-10T21:58:15.449Z,21.63
2024-02-10T22:01:21.192Z,17.52
2024-02-10T22:04:23.483Z,20.45
2024-02-10T22:07:28.039Z,21.27
2024-02-10T22:10:31.734Z,22.58
2024-02-10T22:13:33.325Z,24.05
2024-02-10T22:16:34.709Z,21.13
2024-02-10T22:19:36.061Z,19.17
2024-02-10T22:22:37.814Z,20.35
2024-02-10T22:25:41.847Z,19.33
2024-02-10T22:28:44.083Z,19.33
2024-02-10T22:31:45.608Z,18.60
2024-02-10T22:34:47.311Z,19.00
2024-02-10T22:37:52.091Z,21.95
2024-02-10T22:40:53.756Z,22.48
2024-02-10T22:43:56.234Z,23.38
2024-02-10T22:47:06.856Z,20.38
2024-02-10T22:50:15.849Z,21.27
2024-02-10T22:53:17.270Z,24.73
2024-02-10T22:56:18.704Z,21.73
2024-02-10T22:59:22.848Z,20.27
2024-02-10T23:02:24.164Z,21.35
2024-02-10T23:05:25.647Z,18.98
2024-02-10T23:08:27.076Z,19.73
2024-02-10T23:11:28.687Z,16.85
2024-02-10T23:14:31.512Z,19.33
2024-02-10T23:17:32.982Z,27.27
2024-02-10T23:20:34.722Z,21.83
2024-02-10T23:23:37.811Z,27.20
2024-02-10T23:26:40.481Z,32.33
2024-02-10T23:29:41.906Z,25.33
2024-02-10T23:32:43.302Z,23.60
2024-02-10T23:35:44.737Z,21.67
2024-02-10T23:38:49.627Z,22.63
2024-02-10T23:41:50.908Z,23.33
2024-02-10T23:44:52.675Z,22.38
2024-02-10T23:47:54.686Z,22.08
2024-02-10T23:50:57.512Z,23.70
2024-02-10T23:53:58.784Z,21.73
2024-02-10T23:57:00.633Z,24.17
